createdAt,value
2019-03-03T00:01:53.208Z,7.90
2019-03-03T00:04:20.186Z,7.89
2019-03-03T00:06:46.751Z,7.89
2019-03-03T00:09:14.055Z,7.92
2019-03-03T00:11:40.717Z,7.92
2019-03-03T00:14:08.455Z,7.90
2019-03-03T00:16:35.377Z,7.96
2019-03-03T00:19:02.241Z,8.02
2019-03-03T00:21:28.814Z,8.06
2019-03-03T00:23:55.753Z,8.09
2019-03-03T00:26:23.077Z,8.08
2019-03-03T00:28:49.816Z,8.13
2019-03-03T00:31:22.264Z,8.27
2019-03-03T00:33:48.824Z,8.35
2019-03-03T00:36:15.492Z,8.32
2019-03-03T00:39:04.912Z,8.27
2019-03-03T00:41:51.265Z,8.23
2019-03-03T00:44:47.765Z,8.21
2019-03-03T00:47:33.112Z,8.24
2019-03-03T00:50:19.372Z,8.23
2019-03-03T00:52:59.567Z,8.27
2019-03-03T00:55:43.988Z,8.28
2019-03-03T00:58:22.044Z,8.27
2019-03-03T01:01:12.787Z,8.29
2019-03-03T01:03:48.160Z,8.31
2019-03-03T01:06:39.666Z,8.30
2019-03-03T01:09:48.705Z,8.25
2019-03-03T01:12:23.692Z,8.22
2019-03-03T01:15:07.923Z,8.31
2019-03-03T01:18:06.189Z,8.31
2019-03-03T01:20:49.288Z,8.30
2019-03-03T01:23:35.516Z,8.31
2019-03-03T01:26:02.111Z,8.32
2019-03-03T01:28:28.783Z,8.34
2019-03-03T01:30:55.503Z,8.42
2019-03-03T01:33:22.226Z,8.46
2019-03-03T01:35:48.967Z,8.46
2019-03-03T01:38:15.455Z,8.45
2019-03-03T01:40:41.991Z,8.48
2019-03-03T01:43:08.440Z,8.47
2019-03-03T01:45:34.942Z,8.42
2019-03-03T01:48:01.673Z,8.47
2019-03-03T01:50:28.191Z,8.45
2019-03-03T01:52:54.684Z,8.49
2019-03-03T01:55:21.219Z,8.51
2019-03-03T01:57:47.721Z,8.50
2019-03-03T02:00:24.602Z,8.53
2019-03-03T02:02:51.763Z,8.51
2019-03-03T02:05:19.579Z,8.55
2019-03-03T02:07:46.270Z,8.54
2019-03-03T02:10:13.014Z,8.54
2019-03-03T02:12:39.599Z,8.53
2019-03-03T02:15:06.739Z,8.48
2019-03-03T02:17:33.238Z,8.51
2019-03-03T02:19:59.987Z,8.46
2019-03-03T02:22:26.694Z,8.44
2019-03-03T02:24:53.177Z,8.50
2019-03-03T02:27:19.760Z,8.51
2019-03-03T02:29:48.843Z,8.52
2019-03-03T02:32:17.350Z,8.54
2019-03-03T02:34:43.927Z,8.58
2019-03-03T02:37:10.593Z,8.57
2019-03-03T02:39:37.517Z,8.61
2019-03-03T02:42:04.053Z,8.59
2019-03-03T02:44:30.724Z,8.59
2019-03-03T02:46:57.234Z,8.56
2019-03-03T02:49:24.078Z,8.58
2019-03-03T02:51:50.577Z,8.57
2019-03-03T02:54:18.425Z,8.56
2019-03-03T02:56:45.192Z,8.54
2019-03-03T02:59:11.934Z,8.56
2019-03-03T03:01:48.514Z,8.56
2019-03-03T03:04:14.985Z,8.49
2019-03-03T03:06:46.611Z,8.50
2019-03-03T03:09:16.268Z,8.45
2019-03-03T03:11:50.727Z,8.48
2019-03-03T03:14:28.742Z,8.54
2019-03-03T03:17:15.898Z,8.51
2019-03-03T03:20:04.926Z,8.53
2019-03-03T03:22:56.930Z,8.54
2019-03-03T03:25:32.915Z,8.49
2019-03-03T03:28:16.100Z,8.45
2019-03-03T03:30:57.466Z,8.42
2019-03-03T03:33:29.951Z,8.44
2019-03-03T03:36:54.879Z,8.46
2019-03-03T03:39:29.153Z,8.42
2019-03-03T03:42:22.613Z,8.42
2019-03-03T03:45:07.340Z,8.42
2019-03-03T03:47:59.149Z,8.45
2019-03-03T03:50:48.514Z,8.44
2019-03-03T03:53:27.820Z,8.43
2019-03-03T03:56:12.655Z,8.39
2019-03-03T03:59:02.102Z,8.39
2019-03-03T04:01:54.221Z,8.37
2019-03-03T04:04:30.023Z,8.45
2019-03-03T04:07:22.128Z,8.48
2019-03-03T04:09:57.156Z,8.50
2019-03-03T04:13:07.695Z,8.48
2019-03-03T04:15:57.039Z,8.45
2019-03-03T04:18:41.547Z,8.43
2019-03-03T04:21:45.819Z,8.43
2019-03-03T04:24:32.310Z,8.42
2019-03-03T04:27:13.898Z,8.43
2019-03-03T04:30:00.372Z,8.38
2019-03-03T04:32:49.426Z,8.39
2019-03-03T04:35:27.814Z,8.34
2019-03-03T04:38:22.646Z,8.34
2019-03-03T04:41:14.527Z,8.38
2019-03-03T04:44:15.475Z,8.36
2019-03-03T04:46:47.121Z,8.25
2019-03-03T04:49:35.753Z,8.21
2019-03-03T04:52:20.228Z,8.19
2019-03-03T04:55:09.134Z,8.26
2019-03-03T04:57:59.954Z,8.20
2019-03-03T05:00:44.457Z,8.11
2019-03-03T05:03:22.133Z,8.11
2019-03-03T05:06:03.224Z,8.08
2019-03-03T05:08:35.396Z,8.10
2019-03-03T05:11:12.573Z,8.08
2019-03-03T05:13:55.217Z,8.03
2019-03-03T05:16:44.246Z,8.06
2019-03-03T05:19:33.063Z,8.01
2019-03-03T05:21:59.578Z,8.03
2019-03-03T05:24:34.011Z,8.02
2019-03-03T05:26:56.310Z,8.06
2019-03-03T05:29:23.169Z,8.05
2019-03-03T05:31:49.922Z,7.98
2019-03-03T05:34:16.733Z,7.98
2019-03-03T05:36:43.555Z,8.06
2019-03-03T05:39:10.141Z,8.08
2019-03-03T05:41:36.750Z,8.10
2019-03-03T05:44:03.596Z,8.08
2019-03-03T05:46:30.342Z,8.06
2019-03-03T05:48:57.061Z,8.09
2019-03-03T05:51:23.959Z,8.06
2019-03-03T05:53:50.833Z,8.05
2019-03-03T05:56:18.983Z,8.05
2019-03-03T05:58:46.057Z,8.04
2019-03-03T06:01:12.575Z,8.08
2019-03-03T06:03:39.283Z,8.09
2019-03-03T06:06:08.870Z,8.08
2019-03-03T06:08:36.008Z,8.14
2019-03-03T06:11:02.772Z,8.15
2019-03-03T06:13:29.466Z,8.25
2019-03-03T06:15:58.900Z,8.23
2019-03-03T06:18:25.723Z,8.29
2019-03-03T06:21:01.443Z,8.33
2019-03-03T06:23:30.116Z,8.36
2019-03-03T06:25:56.880Z,8.38
2019-03-03T06:28:27.422Z,8.39
2019-03-03T06:30:54.305Z,8.41
2019-03-03T06:33:21.477Z,8.44
2019-03-03T06:35:48.413Z,8.49
2019-03-03T06:38:15.063Z,8.49
2019-03-03T06:40:42.154Z,8.49
2019-03-03T06:43:08.803Z,8.49
2019-03-03T06:45:35.338Z,8.51
2019-03-03T06:48:02.171Z,8.60
2019-03-03T06:50:34.549Z,8.58
2019-03-03T06:53:01.819Z,8.60
2019-03-03T06:55:28.423Z,8.61
2019-03-03T06:57:55.141Z,8.63
2019-03-03T07:00:21.885Z,8.64
2019-03-03T07:02:48.584Z,8.69
2019-03-03T07:05:17.855Z,8.69
2019-03-03T07:07:44.387Z,8.67
2019-03-03T07:10:12.271Z,8.64
2019-03-03T07:12:39.011Z,8.66
2019-03-03T07:15:07.716Z,8.65
2019-03-03T07:17:34.584Z,8.66
2019-03-03T07:20:01.121Z,8.69
2019-03-03T07:22:27.781Z,8.66
2019-03-03T07:24:54.426Z,8.71
2019-03-03T07:27:28.301Z,8.75
2019-03-03T07:29:54.938Z,8.74
2019-03-03T07:32:29.051Z,8.78
2019-03-03T07:34:56.277Z,8.80
2019-03-03T07:37:22.885Z,8.79
2019-03-03T07:39:50.182Z,8.82
2019-03-03T07:42:17.273Z,8.90
2019-03-03T07:44:45.213Z,8.92
2019-03-03T07:47:12.060Z,8.95
2019-03-03T07:49:39.390Z,8.96
2019-03-03T07:52:06.154Z,9.04
2019-03-03T07:54:33.489Z,9.06
2019-03-03T07:57:00.719Z,9.08
2019-03-03T07:59:30.291Z,9.08
2019-03-03T08:01:58.387Z,9.12
2019-03-03T08:04:25.237Z,9.15
2019-03-03T08:06:52.401Z,9.17
2019-03-03T08:09:19.691Z,9.17
2019-03-03T08:11:46.448Z,9.22
2019-03-03T08:14:13.124Z,9.30
2019-03-03T08:16:39.891Z,9.37
2019-03-03T08:19:06.596Z,9.44
2019-03-03T08:21:33.366Z,9.50
2019-03-03T08:23:59.924Z,9.65
2019-03-03T08:26:26.719Z,9.79
2019-03-03T08:28:53.363Z,9.79
2019-03-03T08:31:20.203Z,9.82
2019-03-03T08:33:46.882Z,9.88
2019-03-03T08:36:13.619Z,9.91
2019-03-03T08:38:40.930Z,9.97
2019-03-03T08:41:07.761Z,10.07
2019-03-03T08:43:44.232Z,10.06
2019-03-03T08:46:20.892Z,10.06
2019-03-03T08:49:10.303Z,10.21
2019-03-03T08:51:53.241Z,10.29
2019-03-03T08:54:38.512Z,10.32
2019-03-03T08:57:36.547Z,10.34
2019-03-03T09:00:21.055Z,10.36
2019-03-03T09:03:19.647Z,10.43
2019-03-03T09:06:09.793Z,10.43
2019-03-03T09:08:51.153Z,10.51
2019-03-03T09:11:40.017Z,10.45
2019-03-03T09:14:29.247Z,10.45
2019-03-03T09:17:12.821Z,10.38
2019-03-03T09:19:48.643Z,10.41
2019-03-03T09:22:46.358Z,10.46
2019-03-03T09:25:23.717Z,10.42
2019-03-03T09:28:12.650Z,10.55
2019-03-03T09:30:50.610Z,10.68
2019-03-03T09:33:44.601Z,10.73
2019-03-03T09:36:31.251Z,10.72
2019-03-03T09:39:29.529Z,10.64
2019-03-03T09:42:18.710Z,10.60
2019-03-03T09:45:05.271Z,10.57
2019-03-03T09:47:42.478Z,10.53
2019-03-03T09:50:23.114Z,10.45
2019-03-03T09:53:09.611Z,10.50
2019-03-03T09:55:51.165Z,10.56
2019-03-03T09:58:43.319Z,10.60
2019-03-03T10:01:23.250Z,10.55
2019-03-03T10:04:08.427Z,10.57
2019-03-03T10:06:54.948Z,10.61
2019-03-03T10:09:46.600Z,10.61
2019-03-03T10:12:17.992Z,10.73
2019-03-03T10:15:04.274Z,10.72
2019-03-03T10:17:40.238Z,10.66
2019-03-03T10:20:14.183Z,10.63
2019-03-03T10:23:10.468Z,10.66
2019-03-03T10:26:02.625Z,10.71
2019-03-03T10:29:01.065Z,10.78
2019-03-03T10:31:53.322Z,10.76
2019-03-03T10:34:30.752Z,10.86
2019-03-03T10:37:09.502Z,11.03
2019-03-03T10:39:48.647Z,11.02
2019-03-03T10:42:38.950Z,11.09
2019-03-03T10:45:27.287Z,11.18
2019-03-03T10:48:08.260Z,11.08
2019-03-03T10:50:43.900Z,11.16
2019-03-03T10:53:26.277Z,11.09
2019-03-03T10:56:15.539Z,10.90
2019-03-03T10:58:56.007Z,10.98
2019-03-03T11:01:45.009Z,10.91
2019-03-03T11:04:17.546Z,10.95
2019-03-03T11:07:07.152Z,11.03
2019-03-03T11:09:40.704Z,11.00
2019-03-03T11:12:32.805Z,11.09
2019-03-03T11:15:18.196Z,11.18
2019-03-03T11:18:02.908Z,11.16
2019-03-03T11:20:52.131Z,11.28
2019-03-03T11:23:37.931Z,11.46
2019-03-03T11:26:14.165Z,11.62
2019-03-03T11:28:50.920Z,11.48
2019-03-03T11:31:37.756Z,11.51
2019-03-03T11:34:23.173Z,11.48
2019-03-03T11:37:03.759Z,11.53
2019-03-03T11:40:01.697Z,11.56
2019-03-03T11:42:35.876Z,11.55
2019-03-03T11:45:51.290Z,11.54
2019-03-03T11:48:43.657Z,11.54
2019-03-03T11:51:30.210Z,11.46
2019-03-03T11:54:03.260Z,11.31
2019-03-03T11:57:01.676Z,11.34
2019-03-03T12:00:00.321Z,11.30
2019-03-03T12:02:55.667Z,11.32
2019-03-03T12:05:53.898Z,11.46
2019-03-03T12:08:40.924Z,11.37
2019-03-03T12:11:23.818Z,11.39
2019-03-03T12:14:00.845Z,11.33
2019-03-03T12:16:48.288Z,11.15
2019-03-03T12:19:38.356Z,11.16
2019-03-03T12:22:11.365Z,11.08
2019-03-03T12:24:52.237Z,11.14
2019-03-03T12:27:36.132Z,11.18
2019-03-03T12:30:12.427Z,11.22
2019-03-03T12:32:50.643Z,11.38
2019-03-03T12:35:28.164Z,11.24
2019-03-03T12:38:05.295Z,11.15
2019-03-03T12:44:09.770Z,11.09
2019-03-03T12:47:07.903Z,10.87
2019-03-03T12:49:51.688Z,10.82
2019-03-03T12:52:35.914Z,10.74
2019-03-03T12:55:13.836Z,10.68
2019-03-03T12:57:58.517Z,10.70
2019-03-03T13:00:32.802Z,10.66
2019-03-03T13:03:23.225Z,10.67
2019-03-03T13:06:24.498Z,10.74
2019-03-03T13:09:07.131Z,10.70
2019-03-03T13:11:52.080Z,10.73
2019-03-03T13:14:44.532Z,10.78
2019-03-03T13:17:48.924Z,10.69
2019-03-03T13:20:38.229Z,10.65
2019-03-03T13:23:17.199Z,10.63
2019-03-03T13:25:59.234Z,10.66
2019-03-03T13:28:40.260Z,10.71
2019-03-03T13:31:12.819Z,10.72
2019-03-03T13:34:00.178Z,10.71
2019-03-03T13:36:44.595Z,10.69
2019-03-03T13:39:27.227Z,10.62
2019-03-03T13:42:19.614Z,10.66
2019-03-03T13:44:46.538Z,10.63
2019-03-03T13:47:13.506Z,10.64
2019-03-03T13:49:40.155Z,10.62
2019-03-03T13:52:07.103Z,10.68
2019-03-03T13:54:35.865Z,10.66
2019-03-03T13:57:02.586Z,10.61
2019-03-03T13:59:29.463Z,10.61
2019-03-03T14:01:56.236Z,10.61
2019-03-03T14:04:23.091Z,10.54
2019-03-03T14:06:49.867Z,10.54
2019-03-03T14:09:16.503Z,10.52
2019-03-03T14:11:43.662Z,10.54
2019-03-03T14:14:10.372Z,10.55
2019-03-03T14:16:37.979Z,10.49
2019-03-03T14:19:04.723Z,10.40
2019-03-03T14:21:31.408Z,10.38
2019-03-03T14:23:59.040Z,10.37
2019-03-03T14:26:25.965Z,10.38
2019-03-03T14:28:52.725Z,10.39
2019-03-03T14:31:19.377Z,10.38
2019-03-03T14:33:46.084Z,10.44
2019-03-03T14:36:13.471Z,10.47
2019-03-03T14:38:40.152Z,10.54
2019-03-03T14:41:06.836Z,10.55
2019-03-03T14:43:33.539Z,10.61
2019-03-03T14:46:01.380Z,10.60
2019-03-03T14:48:28.259Z,10.62
2019-03-03T14:50:54.920Z,10.63
2019-03-03T14:53:21.675Z,10.62
2019-03-03T14:55:48.327Z,10.63
2019-03-03T14:58:14.891Z,10.68
2019-03-03T15:00:41.681Z,10.63
2019-03-03T15:03:08.363Z,10.60
2019-03-03T15:05:35.397Z,10.65
2019-03-03T15:08:02.127Z,10.65
2019-03-03T15:10:29.172Z,10.68
2019-03-03T15:12:56.122Z,10.65
2019-03-03T15:15:22.965Z,10.67
2019-03-03T15:17:49.607Z,10.66
2019-03-03T15:20:17.089Z,10.65
2019-03-03T15:22:43.677Z,10.61
2019-03-03T15:25:10.551Z,10.57
2019-03-03T15:27:37.224Z,10.59
2019-03-03T15:30:04.485Z,10.56
2019-03-03T15:32:31.354Z,10.53
2019-03-03T15:34:57.924Z,10.52
2019-03-03T15:37:24.972Z,10.47
2019-03-03T15:39:51.732Z,10.47
2019-03-03T15:42:18.676Z,10.49
2019-03-03T15:44:45.717Z,10.47
2019-03-03T15:47:12.444Z,10.48
2019-03-03T15:49:39.141Z,10.49
2019-03-03T15:52:05.928Z,10.47
2019-03-03T15:54:32.867Z,10.46
2019-03-03T15:56:59.593Z,10.41
2019-03-03T15:59:26.382Z,10.37
2019-03-03T16:01:53.082Z,10.41
2019-03-03T16:04:19.838Z,10.36
2019-03-03T16:06:46.605Z,10.35
2019-03-03T16:09:16.296Z,10.35
2019-03-03T16:11:44.177Z,10.37
2019-03-03T16:14:11.291Z,10.37
2019-03-03T16:16:37.897Z,10.35
2019-03-03T16:19:04.742Z,10.29
2019-03-03T16:21:31.282Z,10.26
2019-03-03T16:23:58.133Z,10.20
2019-03-03T16:26:24.753Z,10.16
2019-03-03T16:28:51.227Z,10.17
2019-03-03T16:31:18.205Z,10.16
2019-03-03T16:33:45.131Z,10.13
2019-03-03T16:36:12.340Z,10.11
2019-03-03T16:38:39.101Z,10.03
2019-03-03T16:41:05.954Z,10.00
2019-03-03T16:43:32.604Z,9.97
2019-03-03T16:45:59.364Z,9.96
2019-03-03T16:48:25.998Z,9.96
2019-03-03T16:50:52.997Z,9.94
2019-03-03T16:53:19.722Z,9.94
2019-03-03T16:55:46.550Z,9.92
2019-03-03T16:58:13.341Z,9.88
2019-03-03T17:00:40.070Z,9.91
2019-03-03T17:03:06.895Z,9.89
2019-03-03T17:05:33.540Z,9.89
2019-03-03T17:08:00.131Z,9.91
2019-03-03T17:10:27.055Z,9.90
2019-03-03T17:12:53.722Z,9.90
2019-03-03T17:15:20.629Z,9.92
2019-03-03T17:17:47.276Z,9.93
2019-03-03T17:20:14.022Z,9.91
2019-03-03T17:22:40.716Z,9.93
2019-03-03T17:25:09.795Z,9.95
2019-03-03T17:27:36.798Z,9.97
2019-03-03T17:30:03.854Z,9.95
2019-03-03T17:32:30.687Z,9.96
2019-03-03T17:34:57.231Z,9.95
2019-03-03T17:37:23.984Z,9.97
2019-03-03T17:39:50.768Z,9.95
2019-03-03T17:42:17.315Z,9.92
2019-03-03T17:44:43.911Z,9.98
2019-03-03T17:47:10.655Z,9.94
2019-03-03T17:49:38.265Z,10.00
2019-03-03T17:52:04.724Z,10.02
2019-03-03T17:54:31.209Z,10.01
2019-03-03T17:56:57.713Z,10.01
2019-03-03T17:59:24.803Z,9.99
2019-03-03T18:01:52.825Z,10.00
2019-03-03T18:04:19.585Z,9.98
2019-03-03T18:06:46.120Z,10.00
2019-03-03T18:09:12.681Z,9.97
2019-03-03T18:11:39.400Z,9.99
2019-03-03T18:14:06.349Z,9.96
2019-03-03T18:16:39.263Z,9.95
2019-03-03T18:19:12.926Z,9.91
2019-03-03T18:21:39.660Z,9.91
2019-03-03T18:24:07.863Z,9.93
2019-03-03T18:26:34.519Z,9.96
2019-03-03T18:29:01.191Z,9.94
2019-03-03T18:31:30.973Z,9.91
2019-03-03T18:33:59.421Z,9.89
2019-03-03T18:36:39.460Z,9.92
2019-03-03T18:40:03.039Z,9.93
2019-03-03T18:42:55.189Z,9.94
2019-03-03T18:45:26.881Z,9.92
2019-03-03T18:47:58.602Z,9.97
2019-03-03T18:50:33.065Z,9.97
2019-03-03T18:53:00.288Z,10.02
2019-03-03T18:55:26.824Z,10.01
2019-03-03T18:58:16.368Z,10.05
2019-03-03T19:00:43.707Z,10.06
2019-03-03T19:03:21.728Z,10.06
2019-03-03T19:06:34.946Z,10.05
2019-03-03T19:09:25.994Z,10.10
2019-03-03T19:12:23.929Z,10.10
2019-03-03T19:14:55.748Z,10.10
2019-03-03T19:17:35.909Z,10.08
2019-03-03T19:20:24.311Z,10.09
2019-03-03T19:23:26.643Z,10.06
2019-03-03T19:26:10.081Z,10.03
2019-03-03T19:29:12.373Z,9.98
2019-03-03T19:31:39.448Z,9.97
2019-03-03T19:34:10.300Z,9.91
2019-03-03T19:36:51.640Z,9.89
2019-03-03T19:39:18.421Z,9.87
2019-03-03T19:41:45.419Z,9.90
2019-03-03T19:44:13.918Z,9.92
2019-03-03T19:46:40.556Z,9.89
2019-03-03T19:49:07.384Z,9.81
2019-03-03T19:51:35.471Z,9.78
2019-03-03T19:54:02.351Z,9.82
2019-03-03T19:56:30.143Z,9.87
2019-03-03T19:58:57.294Z,9.95
2019-03-03T20:01:27.872Z,9.92
2019-03-03T20:03:54.669Z,9.93
2019-03-03T20:06:22.338Z,9.94
2019-03-03T20:08:49.143Z,9.98
2019-03-03T20:11:15.671Z,9.97
2019-03-03T20:13:42.546Z,9.94
2019-03-03T20:16:09.538Z,9.96
2019-03-03T20:18:37.025Z,9.95
2019-03-03T20:21:03.724Z,9.96
2019-03-03T20:23:30.974Z,9.94
2019-03-03T20:25:57.586Z,9.94
2019-03-03T20:28:24.645Z,9.93
2019-03-03T20:30:51.657Z,9.96
2019-03-03T20:33:18.317Z,9.95
2019-03-03T20:35:45.125Z,9.91
2019-03-03T20:38:12.171Z,9.89
2019-03-03T20:40:39.260Z,9.89
2019-03-03T20:43:08.996Z,9.83
2019-03-03T20:45:35.712Z,9.78
2019-03-03T20:48:02.911Z,9.74
2019-03-03T20:50:29.674Z,9.70
2019-03-03T20:52:56.949Z,9.66
2019-03-03T20:55:23.719Z,9.59
2019-03-03T20:57:50.410Z,9.54
2019-03-03T21:00:18.855Z,9.49
2019-03-03T21:02:48.227Z,9.48
2019-03-03T21:05:15.025Z,9.50
2019-03-03T21:07:50.919Z,9.43
2019-03-03T21:10:13.081Z,9.43
2019-03-03T21:12:40.876Z,9.51
2019-03-03T21:15:08.160Z,9.49
2019-03-03T21:17:34.975Z,9.50
2019-03-03T21:20:04.431Z,9.49
2019-03-03T21:22:31.194Z,9.45
2019-03-03T21:24:59.061Z,9.47
2019-03-03T21:27:25.676Z,9.46
2019-03-03T21:29:53.540Z,9.43
2019-03-03T21:32:20.007Z,9.40
2019-03-03T21:34:46.548Z,9.42
2019-03-03T21:37:13.512Z,9.44
2019-03-03T21:39:40.160Z,9.46
2019-03-03T21:42:06.974Z,9.52
2019-03-03T21:44:34.024Z,9.51
2019-03-03T21:47:00.571Z,9.53
2019-03-03T21:49:27.091Z,9.56
2019-03-03T21:51:54.953Z,9.52
2019-03-03T21:54:21.689Z,9.48
2019-03-03T21:56:48.855Z,9.50
2019-03-03T21:59:15.487Z,9.50
2019-03-03T22:01:42.092Z,9.47
2019-03-03T22:04:08.831Z,9.40
2019-03-03T22:06:35.507Z,9.40
2019-03-03T22:09:04.026Z,9.38
2019-03-03T22:11:30.573Z,9.31
2019-03-03T22:13:57.794Z,9.30
2019-03-03T22:16:24.280Z,9.27
2019-03-03T22:18:51.068Z,9.34
2019-03-03T22:21:17.749Z,9.28
2019-03-03T22:23:44.273Z,9.24
2019-03-03T22:26:13.454Z,9.25
2019-03-03T22:28:40.553Z,9.24
2019-03-03T22:31:07.159Z,9.31
2019-03-03T22:33:34.038Z,9.38
2019-03-03T22:36:00.773Z,9.39
2019-03-03T22:38:27.642Z,9.41
2019-03-03T22:40:54.587Z,9.40
2019-03-03T22:43:24.072Z,9.40
2019-03-03T22:45:51.120Z,9.36
2019-03-03T22:48:17.612Z,9.33
2019-03-03T22:50:44.376Z,9.31
2019-03-03T22:53:10.938Z,9.33
2019-03-03T22:55:37.717Z,9.39
2019-03-03T22:58:04.995Z,9.38
2019-03-03T23:00:57.113Z,9.29
2019-03-03T23:03:42.572Z,9.33
2019-03-03T23:06:29.345Z,9.37
2019-03-03T23:09:33.355Z,9.36
2019-03-03T23:12:46.125Z,9.40
2019-03-03T23:15:29.430Z,9.42
2019-03-03T23:18:32.933Z,9.44
2019-03-03T23:21:24.477Z,9.42
2019-03-03T23:24:43.772Z,9.35
2019-03-03T23:27:10.817Z,9.31
2019-03-03T23:29:37.472Z,9.33
2019-03-03T23:32:04.028Z,9.36
2019-03-03T23:34:31.897Z,9.43
2019-03-03T23:36:58.534Z,9.49
2019-03-03T23:39:25.181Z,9.54
2019-03-03T23:41:52.355Z,9.49
2019-03-03T23:44:19.004Z,9.43
2019-03-03T23:46:45.559Z,9.51
2019-03-03T23:49:12.803Z,9.49
2019-03-03T23:51:39.551Z,9.45
2019-03-03T23:54:06.232Z,9.46
2019-03-03T23:56:32.971Z,9.49
2019-03-03T23:58:59.694Z,9.50
